sensor_id;sensor_type;location;lat;lon;timestamp;pressure;altitude;pressure_sealevel;temperature;humidity
63096;BME280;49184;55.596;37.770;2022-09-13T00:02:06;99669.50;;;11.17;61.57
63096;BME280;49184;55.596;37.770;2022-09-13T00:04:32;99645.94;;;10.93;61.85
63096;BME280;49184;55.596;37.770;2022-09-13T00:06:58;99651.47;;;11.02;62.01
63096;BME280;49184;55.596;37.770;2022-09-13T00:09:24;99649.34;;;10.99;61.77
63096;BME280;49184;55.596;37.770;2022-09-13T00:11:51;99663.63;;;11.10;61.95
63096;BME280;49184;55.596;37.770;2022-09-13T00:14:17;99652.59;;;11.01;61.96
63096;BME280;49184;55.596;37.770;2022-09-13T00:16:43;99644.28;;;10.92;61.97
63096;BME280;49184;55.596;37.770;2022-09-13T00:19:09;99646.59;;;10.99;62.25
63096;BME280;49184;55.596;37.770;2022-09-13T00:21:35;99638.34;;;10.90;62.12
63096;BME280;49184;55.596;37.770;2022-09-13T00:24:01;99648.16;;;10.91;62.57
63096;BME280;49184;55.596;37.770;2022-09-13T00:26:27;99649.47;;;10.94;62.49
63096;BME280;49184;55.596;37.770;2022-09-13T00:28:57;99643.41;;;10.83;63.09
63096;BME280;49184;55.596;37.770;2022-09-13T00:31:25;99612.75;;;10.58;62.76
63096;BME280;49184;55.596;37.770;2022-09-13T00:33:52;99667.00;;;10.93;63.17
63096;BME280;49184;55.596;37.770;2022-09-13T00:36:19;99662.75;;;10.87;62.92
63096;BME280;49184;55.596;37.770;2022-09-13T00:38:45;99643.31;;;10.74;63.02
63096;BME280;49184;55.596;37.770;2022-09-13T00:41:16;99619.84;;;10.46;63.24
63096;BME280;49184;55.596;37.770;2022-09-13T00:43:44;99659.94;;;10.64;63.68
63096;BME280;49184;55.596;37.770;2022-09-13T00:46:14;99633.84;;;10.44;63.59
63096;BME280;49184;55.596;37.770;2022-09-13T00:48:43;99625.91;;;10.43;64.19
63096;BME280;49184;55.596;37.770;2022-09-13T00:51:10;99636.25;;;10.46;64.00
63096;BME280;49184;55.596;37.770;2022-09-13T00:53:40;99667.53;;;10.53;63.88
63096;BME280;49184;55.596;37.770;2022-09-13T00:56:16;99651.53;;;10.33;64.55
63096;BME280;49184;55.596;37.770;2022-09-13T00:59:08;99656.19;;;10.32;64.79
63096;BME280;49184;55.596;37.770;2022-09-13T01:01:44;99672.28;;;10.48;65.09
63096;BME280;49184;55.596;37.770;2022-09-13T01:04:11;99659.75;;;10.47;64.44
63096;BME280;49184;55.596;37.770;2022-09-13T01:06:38;99669.38;;;10.44;64.28
63096;BME280;49184;55.596;37.770;2022-09-13T01:09:06;99598.84;;;10.00;64.65
63096;BME280;49184;55.596;37.770;2022-09-13T01:11:52;99645.38;;;10.27;64.68
63096;BME280;49184;55.596;37.770;2022-09-13T01:14:27;99647.50;;;10.30;64.29
63096;BME280;49184;55.596;37.770;2022-09-13T01:16:53;99657.09;;;10.28;64.36
63096;BME280;49184;55.596;37.770;2022-09-13T01:19:19;99617.47;;;9.98;64.83
63096;BME280;49184;55.596;37.770;2022-09-13T01:25:16;99653.91;;;10.07;65.48
63096;BME280;49184;55.596;37.770;2022-09-13T01:30:33;99649.03;;;9.90;66.15
63096;BME280;49184;55.596;37.770;2022-09-13T01:39:04;99614.25;;;9.63;66.16
63096;BME280;49184;55.596;37.770;2022-09-13T01:41:45;99630.47;;;9.73;66.26
63096;BME280;49184;55.596;37.770;2022-09-13T01:44:15;99647.19;;;9.85;66.01
63096;BME280;49184;55.596;37.770;2022-09-13T01:47:09;99651.53;;;9.86;65.93
63096;BME280;49184;55.596;37.770;2022-09-13T01:49:48;99629.44;;;9.69;66.32
63096;BME280;49184;55.596;37.770;2022-09-13T02:00:07;99636.00;;;9.54;66.59
63096;BME280;49184;55.596;37.770;2022-09-13T02:05:16;99651.25;;;9.55;66.83
63096;BME280;49184;55.596;37.770;2022-09-13T02:07:51;99646.69;;;9.51;67.04
63096;BME280;49184;55.596;37.770;2022-09-13T02:10:34;99646.16;;;9.49;67.16
63096;BME280;49184;55.596;37.770;2022-09-13T02:13:05;99613.00;;;9.23;67.39
63096;BME280;49184;55.596;37.770;2022-09-13T02:15:45;99621.13;;;9.28;67.63
63096;BME280;49184;55.596;37.770;2022-09-13T02:18:27;99641.41;;;9.40;67.70
63096;BME280;49184;55.596;37.770;2022-09-13T02:20:59;99633.34;;;9.30;67.52
63096;BME280;49184;55.596;37.770;2022-09-13T02:23:41;99626.59;;;9.28;67.80
63096;BME280;49184;55.596;37.770;2022-09-13T02:26:11;99613.59;;;9.20;67.98
63096;BME280;49184;55.596;37.770;2022-09-13T02:28:44;99622.09;;;9.18;68.17
63096;BME280;49184;55.596;37.770;2022-09-13T02:31:17;99582.53;;;9.02;67.99
63096;BME280;49184;55.596;37.770;2022-09-13T02:33:52;99604.41;;;9.15;67.86
63096;BME280;49184;55.596;37.770;2022-09-13T02:36:28;99608.69;;;9.22;67.99
63096;BME280;49184;55.596;37.770;2022-09-13T02:38:59;99586.00;;;9.07;68.22
63096;BME280;49184;55.596;37.770;2022-09-13T02:44:57;99582.91;;;9.14;67.81
63096;BME280;49184;55.596;37.770;2022-09-13T02:53:38;99608.75;;;9.16;68.14
63096;BME280;49184;55.596;37.770;2022-09-13T02:58:39;99629.00;;;9.29;68.31
63096;BME280;49184;55.596;37.770;2022-09-13T03:01:10;99609.47;;;9.22;68.15
63096;BME280;49184;55.596;37.770;2022-09-13T03:03:36;99624.94;;;9.27;68.06
63096;BME280;49184;55.596;37.770;2022-09-13T03:06:02;99620.38;;;9.22;68.09
63096;BME280;49184;55.596;37.770;2022-09-13T03:08:29;99589.38;;;8.99;68.38
63096;BME280;49184;55.596;37.770;2022-09-13T03:16:23;99595.84;;;9.03;68.73
63096;BME280;49184;55.596;37.770;2022-09-13T03:19:00;99625.31;;;9.20;68.61
63096;BME280;49184;55.596;37.770;2022-09-13T03:24:25;99624.81;;;9.18;68.82
63096;BME280;49184;55.596;37.770;2022-09-13T03:30:08;99602.03;;;9.09;68.71
63096;BME280;49184;55.596;37.770;2022-09-13T03:35:39;99591.13;;;9.09;68.33
63096;BME280;49184;55.596;37.770;2022-09-13T03:38:40;99553.78;;;8.90;68.33
63096;BME280;49184;55.596;37.770;2022-09-13T03:41:19;99595.69;;;9.13;68.58
63096;BME280;49184;55.596;37.770;2022-09-13T03:44:01;99588.19;;;9.05;68.50
63096;BME280;49184;55.596;37.770;2022-09-13T03:46:34;99609.69;;;9.26;68.54
63096;BME280;49184;55.596;37.770;2022-09-13T03:49:05;99595.09;;;9.16;68.41
63096;BME280;49184;55.596;37.770;2022-09-13T03:51:34;99558.84;;;8.97;68.07
63096;BME280;49184;55.596;37.770;2022-09-13T03:54:01;99614.03;;;9.27;67.97
63096;BME280;49184;55.596;37.770;2022-09-13T03:56:30;99567.72;;;9.08;68.16
63096;BME280;49184;55.596;37.770;2022-09-13T03:58:56;99589.69;;;9.30;68.16
63096;BME280;49184;55.596;37.770;2022-09-13T04:01:23;99571.22;;;9.27;67.72
63096;BME280;49184;55.596;37.770;2022-09-13T04:03:50;99595.00;;;9.40;67.93
63096;BME280;49184;55.596;37.770;2022-09-13T04:06:16;99613.19;;;9.64;67.31
63096;BME280;49184;55.596;37.770;2022-09-13T04:08:43;99621.78;;;9.71;67.39
63096;BME280;49184;55.596;37.770;2022-09-13T04:11:12;99572.28;;;9.45;66.82
63096;BME280;49184;55.596;37.770;2022-09-13T04:13:46;99600.22;;;9.70;66.81
63096;BME280;49184;55.596;37.770;2022-09-13T04:16:12;99615.94;;;9.78;67.19
63096;BME280;49184;55.596;37.770;2022-09-13T04:18:39;99583.63;;;9.66;67.35
63096;BME280;49184;55.596;37.770;2022-09-13T04:21:05;99606.63;;;9.79;67.07
63096;BME280;49184;55.596;37.770;2022-09-13T04:23:32;99567.97;;;9.58;67.15
63096;BME280;49184;55.596;37.770;2022-09-13T04:26:02;99581.63;;;9.72;66.96
63096;BME280;49184;55.596;37.770;2022-09-13T04:28:29;99600.97;;;9.75;66.35
63096;BME280;49184;55.596;37.770;2022-09-13T04:30:55;99588.91;;;9.76;66.12
63096;BME280;49184;55.596;37.770;2022-09-13T04:33:21;99620.09;;;9.89;66.29
63096;BME280;49184;55.596;37.770;2022-09-13T04:35:50;99588.22;;;9.71;66.35
63096;BME280;49184;55.596;37.770;2022-09-13T04:38:18;99603.41;;;9.77;66.32
63096;BME280;49184;55.596;37.770;2022-09-13T04:40:51;99606.34;;;9.80;66.32
63096;BME280;49184;55.596;37.770;2022-09-13T04:43:22;99572.69;;;9.52;66.45
63096;BME280;49184;55.596;37.770;2022-09-13T04:45:49;99585.78;;;9.69;66.81
63096;BME280;49184;55.596;37.770;2022-09-13T04:48:15;99549.44;;;9.41;66.52
63096;BME280;49184;55.596;37.770;2022-09-13T04:50:41;99559.38;;;9.64;67.37
63096;BME280;49184;55.596;37.770;2022-09-13T04:53:08;99586.09;;;9.81;66.36
63096;BME280;49184;55.596;37.770;2022-09-13T04:55:34;99619.22;;;9.94;66.33
63096;BME280;49184;55.596;37.770;2022-09-13T04:58:01;99615.16;;;9.91;66.61
63096;BME280;49184;55.596;37.770;2022-09-13T05:00:29;99603.41;;;9.91;66.46
63096;BME280;49184;55.596;37.770;2022-09-13T05:02:56;99623.88;;;10.07;66.36
63096;BME280;49184;55.596;37.770;2022-09-13T05:05:23;99611.31;;;10.06;66.05
63096;BME280;49184;55.596;37.770;2022-09-13T05:07:51;99632.47;;;10.14;65.90
63096;BME280;49184;55.596;37.770;2022-09-13T05:10:18;99572.44;;;9.81;65.96
63096;BME280;49184;55.596;37.770;2022-09-13T05:12:44;99586.81;;;9.87;66.18
63096;BME280;49184;55.596;37.770;2022-09-13T05:15:10;99591.25;;;9.83;66.15
63096;BME280;49184;55.596;37.770;2022-09-13T05:17:37;99612.75;;;10.03;66.10
63096;BME280;49184;55.596;37.770;2022-09-13T05:20:04;99603.63;;;10.08;65.96
63096;BME280;49184;55.596;37.770;2022-09-13T05:22:30;99598.06;;;10.13;65.97
63096;BME280;49184;55.596;37.770;2022-09-13T05:24:57;99578.66;;;10.01;65.80
63096;BME280;49184;55.596;37.770;2022-09-13T05:27:23;99637.84;;;10.33;65.75
63096;BME280;49184;55.596;37.770;2022-09-13T05:29:49;99612.34;;;10.24;65.28
63096;BME280;49184;55.596;37.770;2022-09-13T05:32:15;99594.91;;;10.20;65.42
63096;BME280;49184;55.596;37.770;2022-09-13T05:34:41;99568.72;;;10.05;64.65
63096;BME280;49184;55.596;37.770;2022-09-13T05:37:07;99613.50;;;10.37;64.91
63096;BME280;49184;55.596;37.770;2022-09-13T05:39:35;99632.22;;;10.57;64.84
63096;BME280;49184;55.596;37.770;2022-09-13T05:42:02;99588.91;;;10.37;64.97
63096;BME280;49184;55.596;37.770;2022-09-13T05:44:28;99580.78;;;10.31;64.85
63096;BME280;49184;55.596;37.770;2022-09-13T05:46:54;99609.34;;;10.53;64.83
63096;BME280;49184;55.596;37.770;2022-09-13T05:49:20;99566.31;;;10.31;64.15
63096;BME280;49184;55.596;37.770;2022-09-13T05:51:47;99585.53;;;10.40;64.07
63096;BME280;49184;55.596;37.770;2022-09-13T05:54:13;99559.94;;;10.35;64.42
63096;BME280;49184;55.596;37.770;2022-09-13T05:56:39;99583.81;;;10.57;64.33
63096;BME280;49184;55.596;37.770;2022-09-13T05:59:06;99594.94;;;10.61;64.61
63096;BME280;49184;55.596;37.770;2022-09-13T06:01:33;99589.97;;;10.63;64.35
63096;BME280;49184;55.596;37.770;2022-09-13T06:03:59;99572.16;;;10.52;64.16
63096;BME280;49184;55.596;37.770;2022-09-13T06:06:26;99570.34;;;10.61;64.12
63096;BME280;49184;55.596;37.770;2022-09-13T06:08:54;99566.88;;;10.55;63.93
63096;BME280;49184;55.596;37.770;2022-09-13T06:11:21;99590.44;;;10.79;64.28
63096;BME280;49184;55.596;37.770;2022-09-13T06:13:47;99618.44;;;10.98;63.32
63096;BME280;49184;55.596;37.770;2022-09-13T06:16:14;99587.59;;;10.84;63.25
63096;BME280;49184;55.596;37.770;2022-09-13T06:18:42;99614.91;;;10.98;63.23
63096;BME280;49184;55.596;37.770;2022-09-13T06:21:09;99621.56;;;11.05;63.32
63096;BME280;49184;55.596;37.770;2022-09-13T06:23:37;99584.63;;;10.94;62.93
63096;BME280;49184;55.596;37.770;2022-09-13T06:26:09;99607.97;;;11.14;62.67
63096;BME280;49184;55.596;37.770;2022-09-13T06:28:36;99581.78;;;10.99;62.84
63096;BME280;49184;55.596;37.770;2022-09-13T06:31:12;99613.91;;;11.30;63.61
63096;BME280;49184;55.596;37.770;2022-09-13T06:33:41;99580.78;;;11.18;62.60
63096;BME280;49184;55.596;37.770;2022-09-13T06:36:13;99622.66;;;11.41;63.13
63096;BME280;49184;55.596;37.770;2022-09-13T06:38:41;99597.03;;;11.37;62.84
63096;BME280;49184;55.596;37.770;2022-09-13T06:41:10;99554.06;;;11.15;62.33
63096;BME280;49184;55.596;37.770;2022-09-13T06:43:37;99575.06;;;11.28;62.66
63096;BME280;49184;55.596;37.770;2022-09-13T06:46:08;99556.25;;;11.26;62.18
63096;BME280;49184;55.596;37.770;2022-09-13T06:48:37;99552.69;;;11.26;62.20
63096;BME280;49184;55.596;37.770;2022-09-13T06:51:07;99574.19;;;11.41;61.86
63096;BME280;49184;55.596;37.770;2022-09-13T06:53:34;99574.75;;;11.52;61.46
63096;BME280;49184;55.596;37.770;2022-09-13T06:56:17;99525.34;;;11.26;61.26
63096;BME280;49184;55.596;37.770;2022-09-13T06:58:46;99522.97;;;11.33;61.22
63096;BME280;49184;55.596;37.770;2022-09-13T07:01:18;99556.25;;;11.58;61.13
63096;BME280;49184;55.596;37.770;2022-09-13T07:03:56;99574.72;;;11.74;60.77
63096;BME280;49184;55.596;37.770;2022-09-13T07:06:32;99545.56;;;11.79;60.54
63096;BME280;49184;55.596;37.770;2022-09-13T07:09:06;99554.66;;;11.88;60.13
63096;BME280;49184;55.596;37.770;2022-09-13T07:12:01;99538.09;;;11.93;60.63
63096;BME280;49184;55.596;37.770;2022-09-13T07:14:40;99516.94;;;11.85;59.77
63096;BME280;49184;55.596;37.770;2022-09-13T07:17:09;99560.13;;;12.19;60.09
63096;BME280;49184;55.596;37.770;2022-09-13T07:20:23;99535.28;;;12.15;59.34
63096;BME280;49184;55.596;37.770;2022-09-13T07:22:49;99527.53;;;12.17;59.58
63096;BME280;49184;55.596;37.770;2022-09-13T07:25:33;99527.28;;;12.36;59.92
63096;BME280;49184;55.596;37.770;2022-09-13T07:28:09;99559.28;;;12.76;58.56
63096;BME280;49184;55.596;37.770;2022-09-13T07:30:35;99527.31;;;12.71;58.25
63096;BME280;49184;55.596;37.770;2022-09-13T07:33:06;99515.06;;;12.68;57.34
63096;BME280;49184;55.596;37.770;2022-09-13T07:35:32;99480.84;;;12.57;57.83
63096;BME280;49184;55.596;37.770;2022-09-13T07:37:58;99555.56;;;13.15;58.02
63096;BME280;49184;55.596;37.770;2022-09-13T07:40:24;99526.50;;;12.97;57.08
63096;BME280;49184;55.596;37.770;2022-09-13T07:42:50;99503.44;;;12.80;56.45
63096;BME280;49184;55.596;37.770;2022-09-13T07:45:17;99506.50;;;12.79;56.66
63096;BME280;49184;55.596;37.770;2022-09-13T07:47:43;99541.53;;;12.99;56.58
63096;BME280;49184;55.596;37.770;2022-09-13T07:50:10;99546.69;;;13.09;56.49
63096;BME280;49184;55.596;37.770;2022-09-13T07:52:36;99513.75;;;12.92;57.19
63096;BME280;49184;55.596;37.770;2022-09-13T07:55:03;99543.78;;;13.14;56.89
63096;BME280;49184;55.596;37.770;2022-09-13T07:57:31;99552.53;;;13.25;57.29
63096;BME280;49184;55.596;37.770;2022-09-13T07:59:57;99505.66;;;13.13;56.82
63096;BME280;49184;55.596;37.770;2022-09-13T08:02:23;99517.13;;;13.32;56.32
63096;BME280;49184;55.596;37.770;2022-09-13T08:04:52;99529.53;;;13.47;55.42
63096;BME280;49184;55.596;37.770;2022-09-13T08:07:18;99515.34;;;13.45;55.00
63096;BME280;49184;55.596;37.770;2022-09-13T08:09:45;99519.38;;;13.48;54.71
63096;BME280;49184;55.596;37.770;2022-09-13T08:12:11;99503.53;;;13.45;55.27
63096;BME280;49184;55.596;37.770;2022-09-13T08:14:37;99489.81;;;13.45;54.53
63096;BME280;49184;55.596;37.770;2022-09-13T08:17:03;99485.06;;;13.54;54.41
63096;BME280;49184;55.596;37.770;2022-09-13T08:19:29;99535.75;;;13.74;53.83
63096;BME280;49184;55.596;37.770;2022-09-13T08:21:56;99522.06;;;13.65;54.11
63096;BME280;49184;55.596;37.770;2022-09-13T08:24:22;99484.94;;;13.50;53.62
63096;BME280;49184;55.596;37.770;2022-09-13T08:26:48;99510.34;;;13.85;54.30
63096;BME280;49184;55.596;37.770;2022-09-13T08:29:15;99506.28;;;13.92;53.66
63096;BME280;49184;55.596;37.770;2022-09-13T08:31:41;99499.78;;;13.96;53.90
63096;BME280;49184;55.596;37.770;2022-09-13T08:34:12;99490.03;;;14.07;53.51
63096;BME280;49184;55.596;37.770;2022-09-13T08:36:39;99508.16;;;14.29;51.97
63096;BME280;49184;55.596;37.770;2022-09-13T08:39:08;99517.53;;;14.37;52.59
63096;BME280;49184;55.596;37.770;2022-09-13T08:46:48;99512.53;;;14.30;53.14
63096;BME280;49184;55.596;37.770;2022-09-13T08:49:24;99499.91;;;14.29;53.66
63096;BME280;49184;55.596;37.770;2022-09-13T08:51:55;99477.25;;;14.32;52.65
63096;BME280;49184;55.596;37.770;2022-09-13T08:54:24;99471.22;;;14.39;50.84
63096;BME280;49184;55.596;37.770;2022-09-13T08:57:42;99494.41;;;14.59;50.70
63096;BME280;49184;55.596;37.770;2022-09-13T09:00:19;99491.13;;;14.66;49.12
63096;BME280;49184;55.596;37.770;2022-09-13T09:05:49;99453.34;;;14.75;50.14
63096;BME280;49184;55.596;37.770;2022-09-13T09:10:50;99467.28;;;14.91;48.92
63096;BME280;49184;55.596;37.770;2022-09-13T09:13:39;99450.88;;;14.94;48.45
63096;BME280;49184;55.596;37.770;2022-09-13T09:16:35;99467.59;;;15.22;48.46
63096;BME280;49184;55.596;37.770;2022-09-13T09:19:36;99462.94;;;15.35;48.63
63096;BME280;49184;55.596;37.770;2022-09-13T09:22:12;99449.97;;;15.36;48.58
63096;BME280;49184;55.596;37.770;2022-09-13T09:24:45;99465.59;;;15.56;48.51
63096;BME280;49184;55.596;37.770;2022-09-13T09:27:17;99447.47;;;15.55;49.22
63096;BME280;49184;55.596;37.770;2022-09-13T09:29:54;99445.19;;;15.57;48.46
63096;BME280;49184;55.596;37.770;2022-09-13T09:40:31;99456.38;;;15.73;46.66
63096;BME280;49184;55.596;37.770;2022-09-13T09:43:00;99382.94;;;15.44;45.42
63096;BME280;49184;55.596;37.770;2022-09-13T09:45:38;99420.13;;;15.62;45.10
63096;BME280;49184;55.596;37.770;2022-09-13T09:48:15;99431.88;;;15.71;44.49
63096;BME280;49184;55.596;37.770;2022-09-13T09:50:54;99444.53;;;15.85;44.68
63096;BME280;49184;55.596;37.770;2022-09-13T09:53:53;99440.28;;;15.87;43.87
63096;BME280;49184;55.596;37.770;2022-09-13T09:56:52;99444.78;;;15.80;44.91
63096;BME280;49184;55.596;37.770;2022-09-13T09:59:27;99435.97;;;15.65;44.48
63096;BME280;49184;55.596;37.770;2022-09-13T10:01:59;99440.47;;;15.58;44.18
63096;BME280;49184;55.596;37.770;2022-09-13T10:04:28;99415.66;;;15.45;44.03
63096;BME280;49184;55.596;37.770;2022-09-13T10:09:35;99422.22;;;15.53;44.80
63096;BME280;49184;55.596;37.770;2022-09-13T10:12:04;99409.78;;;15.35;44.54
63096;BME280;49184;55.596;37.770;2022-09-13T10:14:40;99438.50;;;15.46;44.39
63096;BME280;49184;55.596;37.770;2022-09-13T10:20:00;99414.03;;;15.20;44.88
63096;BME280;49184;55.596;37.770;2022-09-13T10:22:32;99417.03;;;15.27;44.19
63096;BME280;49184;55.596;37.770;2022-09-13T10:25:33;99424.25;;;15.32;45.05
63096;BME280;49184;55.596;37.770;2022-09-13T10:28:04;99404.47;;;15.05;45.03
63096;BME280;49184;55.596;37.770;2022-09-13T10:30:41;99394.00;;;14.98;45.06
63096;BME280;49184;55.596;37.770;2022-09-13T10:33:32;99421.56;;;15.11;45.97
63096;BME280;49184;55.596;37.770;2022-09-13T10:36:25;99382.16;;;14.86;45.70
63096;BME280;49184;55.596;37.770;2022-09-13T10:39:04;99409.84;;;15.01;45.72
63096;BME280;49184;55.596;37.770;2022-09-13T10:41:34;99387.34;;;14.87;45.68
63096;BME280;49184;55.596;37.770;2022-09-13T10:44:19;99407.69;;;15.07;46.28
63096;BME280;49184;55.596;37.770;2022-09-13T10:46:49;99400.31;;;14.99;46.56
63096;BME280;49184;55.596;37.770;2022-09-13T10:49:53;99384.94;;;14.98;46.30
63096;BME280;49184;55.596;37.770;2022-09-13T10:52:27;99400.66;;;15.10;46.71
63096;BME280;49184;55.596;37.770;2022-09-13T10:54:55;99376.56;;;14.94;46.11
63096;BME280;49184;55.596;37.770;2022-09-13T10:57:35;99387.34;;;14.99;45.97
63096;BME280;49184;55.596;37.770;2022-09-13T11:00:05;99369.09;;;14.95;46.70
63096;BME280;49184;55.596;37.770;2022-09-13T11:05:45;99388.78;;;15.18;46.61
63096;BME280;49184;55.596;37.770;2022-09-13T11:14:39;99383.34;;;15.09;47.51
63096;BME280;49184;55.596;37.770;2022-09-13T11:20:19;99371.50;;;14.96;46.43
63096;BME280;49184;55.596;37.770;2022-09-13T11:36:59;99360.41;;;15.05;47.23
63096;BME280;49184;55.596;37.770;2022-09-13T11:39:42;99363.72;;;14.98;46.69
63096;BME280;49184;55.596;37.770;2022-09-13T11:45:27;99338.34;;;14.93;46.21
63096;BME280;49184;55.596;37.770;2022-09-13T11:48:19;99365.59;;;15.07;46.58
63096;BME280;49184;55.596;37.770;2022-09-13T11:51:15;99358.94;;;15.08;46.85
63096;BME280;49184;55.596;37.770;2022-09-13T11:53:50;99365.72;;;15.10;46.92
63096;BME280;49184;55.596;37.770;2022-09-13T11:56:42;99356.19;;;15.08;46.88
63096;BME280;49184;55.596;37.770;2022-09-13T11:59:23;99361.44;;;15.00;46.03
63096;BME280;49184;55.596;37.770;2022-09-13T12:02:00;99316.53;;;14.75;45.27
63096;BME280;49184;55.596;37.770;2022-09-13T12:04:35;99334.91;;;14.84;45.94
63096;BME280;49184;55.596;37.770;2022-09-13T12:09:48;99337.00;;;14.99;45.67
63096;BME280;49184;55.596;37.770;2022-09-13T12:12:17;99332.09;;;15.04;44.93
63096;BME280;49184;55.596;37.770;2022-09-13T12:14:51;99310.38;;;14.91;45.38
63096;BME280;49184;55.596;37.770;2022-09-13T12:17:38;99326.91;;;15.03;45.66
63096;BME280;49184;55.596;37.770;2022-09-13T12:20:13;99327.13;;;14.98;45.41
63096;BME280;49184;55.596;37.770;2022-09-13T12:22:41;99244.72;;;14.56;45.27
63096;BME280;49184;55.596;37.770;2022-09-13T12:25:22;99282.38;;;14.76;44.82
63096;BME280;49184;55.596;37.770;2022-09-13T12:28:16;99300.63;;;14.81;45.18
63096;BME280;49184;55.596;37.770;2022-09-13T12:31:03;99304.28;;;14.85;45.37
63096;BME280;49184;55.596;37.770;2022-09-13T12:33:30;99288.09;;;14.71;45.86
63096;BME280;49184;55.596;37.770;2022-09-13T12:36:12;99276.41;;;14.74;45.36
63096;BME280;49184;55.596;37.770;2022-09-13T12:44:49;99301.56;;;14.97;45.67
63096;BME280;49184;55.596;37.770;2022-09-13T12:48:22;99298.34;;;14.95;46.06
63096;BME280;49184;55.596;37.770;2022-09-13T12:50:42;99275.38;;;14.79;45.99
63096;BME280;49184;55.596;37.770;2022-09-13T12:59:18;99241.09;;;14.64;46.29
63096;BME280;49184;55.596;37.770;2022-09-13T13:01:49;99276.06;;;14.76;46.04
63096;BME280;49184;55.596;37.770;2022-09-13T13:06:55;99278.94;;;14.79;45.14
63096;BME280;49184;55.596;37.770;2022-09-13T13:09:41;99277.69;;;14.77;45.61
63096;BME280;49184;55.596;37.770;2022-09-13T13:12:37;99241.06;;;14.52;46.06
63096;BME280;49184;55.596;37.770;2022-09-13T13:17:54;99264.50;;;14.70;46.29
63096;BME280;49184;55.596;37.770;2022-09-13T13:23:33;99264.50;;;14.70;46.58
63096;BME280;49184;55.596;37.770;2022-09-13T13:34:44;99258.53;;;14.68;46.69
63096;BME280;49184;55.596;37.770;2022-09-13T13:40:12;99227.66;;;14.50;46.50
63096;BME280;49184;55.596;37.770;2022-09-13T13:42:47;99230.19;;;14.55;46.75
63096;BME280;49184;55.596;37.770;2022-09-13T13:45:25;99248.31;;;14.69;46.57
63096;BME280;49184;55.596;37.770;2022-09-13T13:51:20;99271.03;;;14.78;47.39
63096;BME280;49184;55.596;37.770;2022-09-13T13:54:03;99210.19;;;14.46;47.34
63096;BME280;49184;55.596;37.770;2022-09-13T13:56:45;99246.59;;;14.64;46.23
63096;BME280;49184;55.596;37.770;2022-09-13T13:59:25;99262.19;;;14.72;47.57
63096;BME280;49184;55.596;37.770;2022-09-13T14:01:55;99243.59;;;14.69;47.26
63096;BME280;49184;55.596;37.770;2022-09-13T14:04:38;99263.22;;;14.80;47.13
63096;BME280;49184;55.596;37.770;2022-09-13T14:07:23;99250.94;;;14.65;47.04
63096;BME280;49184;55.596;37.770;2022-09-13T14:15:57;99239.03;;;14.61;47.95
63096;BME280;49184;55.596;37.770;2022-09-13T14:21:16;99260.34;;;14.76;47.20
63096;BME280;49184;55.596;37.770;2022-09-13T14:23:43;99247.16;;;14.70;47.43
63096;BME280;49184;55.596;37.770;2022-09-13T14:26:10;99236.41;;;14.65;47.47
63096;BME280;49184;55.596;37.770;2022-09-13T14:28:37;99260.22;;;14.73;47.34
63096;BME280;49184;55.596;37.770;2022-09-13T14:31:05;99239.72;;;14.58;47.56
63096;BME280;49184;55.596;37.770;2022-09-13T14:33:33;99244.53;;;14.61;47.95
63096;BME280;49184;55.596;37.770;2022-09-13T14:36:05;99266.09;;;14.71;47.62
63096;BME280;49184;55.596;37.770;2022-09-13T14:38:34;99250.84;;;14.62;48.08
63096;BME280;49184;55.596;37.770;2022-09-13T14:41:12;99246.81;;;14.59;47.76
63096;BME280;49184;55.596;37.770;2022-09-13T14:43:39;99236.47;;;14.56;48.04
63096;BME280;49184;55.596;37.770;2022-09-13T14:46:26;99249.34;;;14.64;47.76
63096;BME280;49184;55.596;37.770;2022-09-13T14:48:56;99254.84;;;14.64;48.12
63096;BME280;49184;55.596;37.770;2022-09-13T14:51:28;99256.94;;;14.67;48.76
63096;BME280;49184;55.596;37.770;2022-09-13T14:54:22;99247.41;;;14.65;48.99
63096;BME280;49184;55.596;37.770;2022-09-13T14:56:57;99226.25;;;14.44;49.59
63096;BME280;49184;55.596;37.770;2022-09-13T14:59:46;99233.47;;;14.49;49.45
63096;BME280;49184;55.596;37.770;2022-09-13T15:02:20;99232.53;;;14.45;49.43
63096;BME280;49184;55.596;37.770;2022-09-13T15:04:53;99204.09;;;14.28;49.24
63096;BME280;49184;55.596;37.770;2022-09-13T15:07:33;99213.75;;;14.34;49.89
63096;BME280;49184;55.596;37.770;2022-09-13T15:12:47;99212.41;;;14.20;50.56
63096;BME280;49184;55.596;37.770;2022-09-13T15:17:58;99217.16;;;14.31;50.48
63096;BME280;49184;55.596;37.770;2022-09-13T15:20:29;99204.41;;;14.27;50.24
63096;BME280;49184;55.596;37.770;2022-09-13T15:22:56;99226.09;;;14.28;50.35
63096;BME280;49184;55.596;37.770;2022-09-13T15:25:26;99222.19;;;14.29;51.05
63096;BME280;49184;55.596;37.770;2022-09-13T15:27:57;99225.72;;;14.30;51.30
63096;BME280;49184;55.596;37.770;2022-09-13T15:30:31;99214.72;;;14.18;50.82
63096;BME280;49184;55.596;37.770;2022-09-13T15:35:38;99198.66;;;14.07;51.54
63096;BME280;49184;55.596;37.770;2022-09-13T15:38:25;99214.59;;;14.14;52.27
63096;BME280;49184;55.596;37.770;2022-09-13T15:43:36;99201.06;;;14.09;52.28
63096;BME280;49184;55.596;37.770;2022-09-13T15:46:04;99197.38;;;14.05;53.79
63096;BME280;49184;55.596;37.770;2022-09-13T15:48:33;99198.25;;;13.97;53.52
63096;BME280;49184;55.596;37.770;2022-09-13T15:51:06;99183.00;;;13.87;55.34
63096;BME280;49184;55.596;37.770;2022-09-13T15:53:35;99213.63;;;13.98;55.33
63096;BME280;49184;55.596;37.770;2022-09-13T15:56:02;99190.06;;;13.76;55.42
63096;BME280;49184;55.596;37.770;2022-09-13T15:58:32;99203.59;;;13.81;56.35
63096;BME280;49184;55.596;37.770;2022-09-13T16:00:59;99195.16;;;13.65;57.25
63096;BME280;49184;55.596;37.770;2022-09-13T16:03:25;99169.78;;;13.47;57.68